Time;durP1;ratioP1;P1;durP2;ratioP2;P2;SDS_P1;SDS_P2;PMS_P1;PMS_P2;Temp;Humidity;BMP_temperature;BMP_pressure;BME280_temperature;BME280_humidity;BME280_pressure;Samples;Min_cycle;Max_cycle;Signal;HPM_P1;HPM_P2
2022/04/08 00:03:31;;;;;;;3.72;1.13;;;;;;;7.25;100.00;95994.84;10370531;28;20046;-64
2022/04/08 00:08:36;;;;;;;2.97;1.00;;;;;;;7.11;100.00;95985.13;10394516;28;20037;-64
2022/04/08 00:13:39;;;;;;;2.38;0.70;;;;;;;6.97;100.00;96008.31;10399673;28;20862;-64
2022/04/08 00:18:42;;;;;;;1.13;0.52;;;;;;;6.79;100.00;96031.06;10212640;28;5002582;-64
2022/04/08 00:23:47;;;;;;;2.50;0.70;;;;;;;6.66;100.00;96012.25;10369649;28;20053;-63
2022/04/08 00:28:49;;;;;;;1.50;0.60;;;;;;;6.68;100.00;96032.44;10385699;28;20072;-63
2022/04/08 00:33:53;;;;;;;2.72;0.60;;;;;;;6.64;100.00;96020.50;10370139;28;20478;-62
2022/04/08 00:38:57;;;;;;;1.13;0.60;;;;;;;6.56;100.00;96037.50;10384888;28;20485;-61
2022/04/08 00:44:00;;;;;;;0.68;0.40;;;;;;;6.53;100.00;96039.72;10384510;28;20067;-64
2022/04/08 00:49:03;;;;;;;1.27;0.50;;;;;;;6.39;100.00;96033.47;10386855;28;20244;-64
2022/04/08 00:54:09;;;;;;;1.50;0.47;;;;;;;6.25;100.00;96006.59;10384252;28;20067;-64
2022/04/08 00:59:12;;;;;;;2.63;0.70;;;;;;;6.17;100.00;96047.66;10383639;28;20049;-64
2022/04/08 01:04:15;;;;;;;0.57;0.40;;;;;;;6.06;100.00;96039.34;10380347;28;20510;-64
2022/04/08 01:09:20;;;;;;;1.67;0.70;;;;;;;5.90;100.00;96069.81;10384501;28;20053;-63
2022/04/08 01:14:25;;;;;;;1.42;0.65;;;;;;;5.85;100.00;96068.53;10367412;28;20051;-63
2022/04/08 01:19:28;;;;;;;1.02;0.65;;;;;;;5.76;100.00;96083.03;10384322;28;20038;-64
2022/04/08 01:24:39;;;;;;;2.50;0.90;;;;;;;5.79;100.00;96093.34;10364361;28;20041;-64
2022/04/08 01:29:43;;;;;;;1.23;0.60;;;;;;;5.75;100.00;96115.28;10382826;28;20162;-66
2022/04/08 01:34:49;;;;;;;2.53;0.88;;;;;;;5.74;100.00;96106.41;10365558;28;20469;-63
2022/04/08 01:39:52;;;;;;;1.42;0.60;;;;;;;5.60;100.00;96136.66;10380720;28;20525;-63
2022/04/08 01:44:57;;;;;;;1.77;0.70;;;;;;;5.67;100.00;96122.38;10383402;28;20058;-63
2022/04/08 01:50:00;;;;;;;3.20;0.70;;;;;;;5.77;100.00;96127.41;10383007;28;20077;-64
2022/04/08 01:55:05;;;;;;;1.70;0.63;;;;;;;5.68;100.00;96118.69;10366155;28;20049;-64
2022/04/08 02:00:11;;;;;;;1.42;0.60;;;;;;;5.59;100.00;96135.00;10385637;28;20041;-63
2022/04/08 02:05:14;;;;;;;1.05;0.50;;;;;;;5.53;100.00;96153.44;10381643;28;20562;-65
2022/04/08 02:10:17;;;;;;;1.30;0.60;;;;;;;5.51;100.00;96166.13;10382026;28;21383;-63
2022/04/08 02:15:28;;;;;;;2.25;0.40;;;;;;;5.56;100.00;96170.91;10381608;28;20498;-63
2022/04/08 02:20:32;;;;;;;1.92;0.60;;;;;;;5.50;100.00;96148.44;10389361;28;20064;-65
2022/04/08 02:25:35;;;;;;;1.13;0.52;;;;;;;5.56;100.00;96162.91;10389966;28;20179;-65
2022/04/08 02:30:40;;;;;;;1.50;0.60;;;;;;;5.50;100.00;96167.16;10390775;28;20043;-65
2022/04/08 02:35:43;;;;;;;2.70;0.60;;;;;;;5.59;100.00;96161.69;10391138;28;20069;-65
2022/04/08 02:40:47;;;;;;;1.63;0.65;;;;;;;5.65;100.00;96152.97;10389287;28;20072;-65
2022/04/08 02:45:52;;;;;;;1.25;0.60;;;;;;;5.80;100.00;96185.00;10391420;28;20065;-64
2022/04/08 02:50:55;;;;;;;1.08;0.50;;;;;;;5.88;100.00;96187.53;10390288;28;20053;-65
2022/04/08 02:55:59;;;;;;;1.30;0.60;;;;;;;5.91;100.00;96170.34;10373619;28;20077;-65
2022/04/08 03:01:04;;;;;;;0.85;0.50;;;;;;;5.92;100.00;96188.84;10392358;28;20044;-62
2022/04/08 03:06:08;;;;;;;1.50;0.60;;;;;;;5.97;100.00;96198.97;10393970;28;20052;-62
2022/04/08 03:11:12;;;;;;;0.65;0.50;;;;;;;5.95;100.00;96223.22;10375970;28;20122;-61
2022/04/08 03:16:17;;;;;;;1.80;0.70;;;;;;;5.90;100.00;96225.59;10393994;28;20041;-61
2022/04/08 03:21:21;;;;;;;0.95;0.57;;;;;;;5.80;100.00;96247.28;10390266;28;20034;-62
2022/04/08 03:26:24;;;;;;;1.48;0.65;;;;;;;5.75;100.00;96247.00;10392552;28;20065;-61
2022/04/08 03:31:30;;;;;;;1.98;0.63;;;;;;;5.63;100.00;96259.16;10392360;28;20562;-63
2022/04/08 03:36:34;;;;;;;1.02;0.60;;;;;;;5.54;100.00;96255.72;10391565;28;20045;-64
2022/04/08 03:41:37;;;;;;;1.13;0.60;;;;;;;5.59;100.00;96274.72;10392471;28;20048;-64
2022/04/08 03:46:43;;;;;;;2.55;0.70;;;;;;;5.55;100.00;96282.28;10392173;28;20057;-64
2022/04/08 03:51:47;;;;;;;1.17;0.63;;;;;;;5.42;100.00;96295.41;10390574;28;20053;-64
2022/04/08 03:56:52;;;;;;;2.05;0.70;;;;;;;5.55;100.00;96290.28;10373319;28;20199;-64
2022/04/08 04:01:56;;;;;;;1.00;0.43;;;;;;;5.69;100.00;96335.91;10389335;28;20520;-64
2022/04/08 04:06:59;;;;;;;1.75;0.82;;;;;;;5.69;100.00;96338.56;10391723;28;20045;-65
2022/04/08 04:12:03;;;;;;;0.82;0.50;;;;;;;5.71;100.00;96321.34;10389950;28;20042;-65
2022/04/08 04:17:07;;;;;;;1.80;0.70;;;;;;;5.71;100.00;96317.81;10391427;28;20182;-65
2022/04/08 04:22:11;;;;;;;0.80;0.55;;;;;;;5.69;100.00;96334.03;10391553;28;20045;-64
2022/04/08 04:27:13;;;;;;;1.15;0.50;;;;;;;5.70;100.00;96342.91;10389478;28;20037;-67
2022/04/08 04:32:19;;;;;;;0.82;0.50;;;;;;;5.75;100.00;96347.69;10372576;28;20061;-66
2022/04/08 04:37:22;;;;;;;1.75;0.60;;;;;;;5.77;100.00;96349.16;10387979;28;20053;-64
2022/04/08 04:42:26;;;;;;;2.78;0.43;;;;;;;5.78;100.00;96358.84;10388830;28;20045;-64
2022/04/08 04:47:30;;;;;;;1.10;0.50;;;;;;;5.74;100.00;96389.59;10389313;28;20754;-64
2022/04/08 04:52:34;;;;;;;1.35;0.57;;;;;;;5.77;100.00;96383.91;10389840;28;20075;-64
2022/04/08 04:57:39;;;;;;;1.60;0.70;;;;;;;5.70;100.00;96389.13;10371819;28;20148;-64
2022/04/08 05:02:43;;;;;;;2.28;0.50;;;;;;;5.72;100.00;96407.66;10388084;28;20045;-65
2022/04/08 05:07:47;;;;;;;1.60;0.63;;;;;;;5.67;100.00;96426.06;10390370;28;20045;-65
2022/04/08 05:12:50;;;;;;;1.70;0.60;;;;;;;5.53;100.00;96447.19;10386644;28;20078;-63
2022/04/08 05:17:54;;;;;;;2.20;0.75;;;;;;;5.51;100.00;96459.09;10390377;28;20168;-63
2022/04/08 05:22:58;;;;;;;1.02;0.60;;;;;;;5.60;100.00;96457.16;10388428;28;20050;-61
2022/04/08 05:28:01;;;;;;;1.75;0.60;;;;;;;5.60;100.00;96462.50;10388980;28;20146;-63
2022/04/08 05:33:06;;;;;;;0.98;0.57;;;;;;;5.64;100.00;96475.34;10387849;28;20094;-57
2022/04/08 05:38:09;;;;;;;0.98;0.55;;;;;;;5.63;100.00;96483.53;10387562;28;20041;-61
2022/04/08 05:43:13;;;;;;;2.33;0.60;;;;;;;5.55;100.00;96498.59;10388358;28;20053;-61
2022/04/08 05:48:17;;;;;;;1.27;0.52;;;;;;;5.58;100.00;96517.97;10385495;28;21455;-65
2022/04/08 05:53:22;;;;;;;0.98;0.50;;;;;;;5.58;100.00;96501.94;10369024;28;20049;-63
2022/04/08 05:58:40;;;;;;;1.70;0.60;;;;;;;5.69;100.00;96504.19;10387098;28;20152;-59
2022/04/08 06:03:45;;;;;;;1.45;0.50;;;;;;;5.71;100.00;96532.38;10387625;28;20864;-64
2022/04/08 06:08:48;;;;;;;1.42;0.57;;;;;;;5.77;100.00;96506.81;10387740;28;20045;-62
2022/04/08 06:13:52;;;;;;;0.93;0.63;;;;;;;5.71;100.00;96523.53;10386088;28;20057;-62
2022/04/08 06:18:57;;;;;;;0.80;0.50;;;;;;;5.82;100.00;96519.63;10387187;28;20126;-63
2022/04/08 06:24:00;;;;;;;1.35;0.60;;;;;;;5.92;100.00;96530.09;10384853;28;21620;-60
2022/04/08 06:29:05;;;;;;;1.85;0.63;;;;;;;5.94;100.00;96554.78;10386588;28;20065;-62
2022/04/08 06:34:09;;;;;;;0.85;0.40;;;;;;;6.00;100.00;96538.06;10369518;28;20073;-62
2022/04/08 06:39:12;;;;;;;1.80;0.60;;;;;;;6.12;100.00;96550.00;10387182;28;20052;-61
2022/04/08 06:44:15;;;;;;;1.25;0.60;;;;;;;6.08;100.00;96570.06;10386549;28;20145;-60
2022/04/08 06:49:20;;;;;;;1.52;0.70;;;;;;;6.12;100.00;96574.06;10385461;28;20136;-62
2022/04/08 06:54:23;;;;;;;1.92;0.60;;;;;;;6.14;100.00;96558.69;10368830;28;20103;-62
2022/04/08 06:59:26;;;;;;;1.17;0.55;;;;;;;6.11;100.00;96579.59;10382970;28;20076;-62
2022/04/08 07:04:31;;;;;;;1.10;0.60;;;;;;;6.09;100.00;96565.56;10391222;28;20041;-62
2022/04/08 07:09:35;;;;;;;1.83;0.70;;;;;;;6.22;100.00;96576.50;10395260;28;20053;-60
2022/04/08 07:14:38;;;;;;;1.55;0.77;;;;;;;6.40;100.00;96564.63;10396392;28;20045;-62
2022/04/08 07:19:43;;;;;;;1.08;0.45;;;;;;;6.45;100.00;96595.19;10395357;28;20128;-61
2022/04/08 07:24:46;;;;;;;1.35;0.60;;;;;;;6.67;100.00;96598.00;10388696;28;20136;-60
2022/04/08 07:29:49;;;;;;;1.90;0.70;;;;;;;6.53;100.00;96607.66;10390669;28;20429;-61
2022/04/08 07:34:54;;;;;;;2.28;0.80;;;;;;;6.71;100.00;96599.31;10388898;28;20124;-61
2022/04/08 07:39:57;;;;;;;1.88;0.70;;;;;;;6.79;100.00;96599.22;10393008;28;20042;-61
2022/04/08 07:45:00;;;;;;;1.20;0.60;;;;;;;6.60;100.00;96603.22;10393916;28;20050;-61
2022/04/08 07:50:09;;;;;;;1.58;0.70;;;;;;;6.61;100.00;96620.94;10394280;28;20140;-61
2022/04/08 07:55:12;;;;;;;1.67;0.65;;;;;;;6.83;100.00;96607.72;10393463;28;20048;-60
2022/04/08 08:00:19;;;;;;;1.20;0.60;;;;;;;6.96;100.00;96604.41;10391479;28;20046;-62
2022/04/08 08:05:24;;;;;;;1.00;0.70;;;;;;;6.90;100.00;96618.50;10392265;28;20041;-61
2022/04/08 08:10:29;;;;;;;1.83;0.70;;;;;;;6.87;100.00;96603.66;10390377;28;20453;-60
2022/04/08 08:15:36;;;;;;;1.30;0.80;;;;;;;6.95;100.00;96613.47;10375143;28;20096;-61
2022/04/08 08:20:42;;;;;;;1.27;0.60;;;;;;;6.92;100.00;96606.63;10393247;28;20068;-60
2022/04/08 08:25:45;;;;;;;1.13;0.60;;;;;;;7.01;100.00;96614.56;10392805;28;20124;-60
2022/04/08 08:30:55;;;;;;;1.30;0.60;;;;;;;7.40;100.00;96602.75;10392463;28;20067;-59
2022/04/08 08:36:00;;;;;;;1.38;0.50;;;;;;;7.54;100.00;96617.16;10390318;28;20056;-60
2022/04/08 08:41:03;;;;;;;1.30;0.50;;;;;;;7.47;100.00;96602.81;10390908;28;20055;-59
2022/04/08 08:46:07;;;;;;;1.60;0.50;;;;;;;7.37;100.00;96593.22;10389210;28;20046;-61
2022/04/08 08:51:14;;;;;;;1.23;0.57;;;;;;;7.20;98.04;96597.94;10391770;28;20046;-63
2022/04/08 08:56:17;;;;;;;1.50;0.43;;;;;;;7.01;97.71;96593.97;10391760;28;20532;-60
2022/04/08 09:01:20;;;;;;;2.05;0.80;;;;;;;6.86;100.00;96612.69;10391079;28;20168;-62
2022/04/08 09:06:24;;;;;;;2.03;0.63;;;;;;;6.82;100.00;96611.38;10391757;28;21596;-61
2022/04/08 09:11:28;;;;;;;1.20;0.60;;;;;;;6.94;100.00;96622.50;10389714;28;20133;-62
2022/04/08 09:16:37;;;;;;;1.10;0.45;;;;;;;6.98;100.00;96628.31;10389889;28;20120;-62
2022/04/08 09:21:51;;;;;;;1.15;0.60;;;;;;;7.02;100.00;96632.31;10388497;28;20171;-61
2022/04/08 09:26:55;;;;;;;1.02;0.50;;;;;;;7.11;100.00;96619.66;10370411;28;20195;-60
2022/04/08 09:31:59;;;;;;;0.90;0.60;;;;;;;7.32;100.00;96622.44;10390437;28;20518;-59
2022/04/08 09:37:10;;;;;;;1.20;0.50;;;;;;;7.52;100.00;96603.09;10389912;28;20425;-61
2022/04/08 09:42:13;;;;;;;1.15;0.60;;;;;;;7.60;100.00;96612.88;10371734;28;20049;-62
2022/04/08 09:47:16;;;;;;;1.10;0.70;;;;;;;7.56;94.98;96599.03;10387274;28;20041;-62
2022/04/08 09:52:21;;;;;;;2.20;0.70;;;;;;;7.45;90.33;96618.28;10390795;28;20056;-63
2022/04/08 09:57:25;;;;;;;2.38;0.80;;;;;;;7.54;97.45;96583.13;10386697;28;20076;-60
2022/04/08 10:02:30;;;;;;;0.80;0.60;;;;;;;7.57;100.00;96581.94;10387849;28;21029;-60
2022/04/08 10:07:47;;;;;;;1.83;0.70;;;;;;;7.65;98.91;96595.22;10388384;28;20044;-59
2022/04/08 10:13:30;;;;;;;1.75;0.70;;;;;;;7.75;100.00;96572.66;10387593;28;20049;-57
2022/04/08 10:18:35;;;;;;;1.30;0.90;;;;;;;7.75;100.00;96569.97;10388541;28;20084;-63
2022/04/08 10:23:40;;;;;;;1.45;0.77;;;;;;;7.60;100.00;96565.47;10368511;28;20537;-61
2022/04/08 10:28:43;;;;;;;2.33;0.80;;;;;;;7.74;100.00;96560.28;10369003;28;20045;-59
2022/04/08 10:33:54;;;;;;;2.40;0.90;;;;;;;7.72;94.71;96558.59;10381883;28;20045;-62
2022/04/08 10:39:12;;;;;;;0.70;0.70;;;;;;;7.80;95.10;96554.97;10391318;28;20075;-61
2022/04/08 10:44:15;;;;;;;1.10;0.65;;;;;;;7.96;92.53;96542.38;10377748;28;20191;-60
2022/04/08 10:49:25;;;;;;;1.00;0.70;;;;;;;7.92;95.85;96533.88;10396993;28;20033;-62
2022/04/08 10:54:36;;;;;;;1.45;0.80;;;;;;;7.99;90.28;96512.50;10396323;28;20505;-60
2022/04/08 10:59:39;;;;;;;1.73;0.90;;;;;;;8.15;99.45;96508.72;10394161;28;20053;-60
2022/04/08 11:04:42;;;;;;;1.33;0.80;;;;;;;8.29;98.26;96494.38;10393924;28;20052;-62
2022/04/08 11:09:54;;;;;;;1.48;0.80;;;;;;;8.29;94.33;96485.50;10393225;28;20056;-62
2022/04/08 11:14:59;;;;;;;1.48;0.80;;;;;;;8.32;100.00;96471.72;10396398;28;20506;-59
2022/04/08 11:20:05;;;;;;;0.93;0.70;;;;;;;8.34;100.00;96469.66;10396203;28;20429;-61
2022/04/08 11:25:12;;;;;;;0.85;0.68;;;;;;;8.28;100.00;96465.91;10395903;28;20494;-63
2022/04/08 11:30:19;;;;;;;1.25;0.80;;;;;;;8.33;100.00;96463.44;10396414;28;20047;-61
2022/04/08 11:35:29;;;;;;;1.40;0.80;;;;;;;8.32;100.00;96461.78;10393886;28;20051;-60
2022/04/08 11:40:34;;;;;;;2.40;0.90;;;;;;;8.31;100.00;96438.66;10390796;28;20041;-60
2022/04/08 11:45:38;;;;;;;1.63;0.80;;;;;;;8.24;97.21;96436.97;10394608;28;20057;-58
2022/04/08 11:50:41;;;;;;;1.50;0.70;;;;;;;8.25;100.00;96431.41;10394409;28;20502;-59
2022/04/08 11:55:56;;;;;;;1.30;0.70;;;;;;;8.25;100.00;96419.84;10394094;28;20037;-57
2022/04/08 12:01:01;;;;;;;1.33;0.80;;;;;;;8.39;100.00;96418.91;10393155;28;20041;-63
2022/04/08 12:06:07;;;;;;;1.25;0.70;;;;;;;8.38;100.00;96417.25;10375325;28;20073;-57
2022/04/08 12:11:15;;;;;;;2.55;0.70;;;;;;;8.33;100.00;96417.84;10390869;28;20095;-58
2022/04/08 12:16:18;;;;;;;1.08;0.75;;;;;;;8.30;100.00;96404.81;10389592;28;20485;-57
2022/04/08 12:21:23;;;;;;;1.75;0.65;;;;;;;8.23;94.89;96408.50;10391401;28;20051;-57
2022/04/08 12:26:30;;;;;;;0.93;0.73;;;;;;;8.21;100.00;96414.03;10393844;28;20069;-57
2022/04/08 12:31:33;;;;;;;1.73;0.80;;;;;;;8.15;100.00;96409.47;10392911;28;20565;-57
2022/04/08 12:36:37;;;;;;;2.05;0.80;;;;;;;8.16;100.00;96398.53;10391810;28;20049;-58
2022/04/08 12:41:43;;;;;;;0.65;0.60;;;;;;;8.16;100.00;96403.09;10391975;28;20449;-54
2022/04/08 12:46:47;;;;;;;0.70;0.60;;;;;;;8.04;100.00;96400.09;10389332;28;20057;-57
2022/04/08 12:51:49;;;;;;;2.78;0.40;;;;;;;7.25;100.00;96423.31;10411553;23;20910;-83
2022/04/08 12:56:54;;;;;;;1.05;0.50;;;;;;;6.63;100.00;96420.94;10380132;28;20414;-82
2022/04/08 13:01:57;;;;;;;1.38;0.50;;;;;;;6.64;100.00;96397.72;10374105;28;20081;-82
2022/04/08 13:07:02;;;;;;;1.17;0.60;;;;;;;6.80;100.00;96388.63;10372764;28;20445;-82
2022/04/08 13:12:08;;;;;;;0.85;0.50;;;;;;;6.91;100.00;96372.09;10358132;28;20042;-82
2022/04/08 13:17:11;;;;;;;1.83;0.70;;;;;;;7.03;100.00;96356.34;10375491;28;20399;-82
2022/04/08 13:22:14;;;;;;;1.30;0.65;;;;;;;7.20;100.00;96348.09;10375053;28;20061;-82
2022/04/08 13:27:19;;;;;;;1.08;0.40;;;;;;;7.24;100.00;96352.00;10375723;28;20480;-82
2022/04/08 13:32:22;;;;;;;0.40;0.28;;;;;;;7.21;100.00;96352.41;10371889;28;20042;-81
2022/04/08 13:37:26;;;;;;;0.80;0.30;;;;;;;7.12;100.00;96359.75;10373364;28;20084;-81
2022/04/08 13:42:31;;;;;;;0.65;0.40;;;;;;;6.96;100.00;96365.31;10375076;28;20042;-82
2022/04/08 13:47:34;;;;;;;0.60;0.30;;;;;;;6.72;100.00;96370.00;10374557;28;20037;-83
2022/04/08 13:52:37;;;;;;;0.82;0.30;;;;;;;6.61;100.00;96363.28;10402130;28;20056;-81
2022/04/08 13:57:42;;;;;;;0.80;0.40;;;;;;;6.40;100.00;96372.91;10415635;28;20053;-81
2022/04/08 14:02:45;;;;;;;0.20;0.20;;;;;;;6.35;100.00;96375.31;10429217;28;20046;-82
2022/04/08 14:07:48;;;;;;;0.60;0.30;;;;;;;6.28;100.00;96377.88;10389875;28;20038;-82
2022/04/08 14:12:52;;;;;;;0.40;0.20;;;;;;;6.06;100.00;96371.59;10406989;28;20069;-82
2022/04/08 14:17:59;;;;;;;0.40;0.20;;;;;;;5.75;100.00;96387.78;10395567;28;20045;-82
2022/04/08 14:23:04;;;;;;;0.30;0.30;;;;;;;5.64;100.00;96383.69;10424008;28;20056;-81
2022/04/08 14:28:08;;;;;;;0.30;0.30;;;;;;;5.44;100.00;96386.84;10405554;28;20041;-81
2022/04/08 14:33:11;;;;;;;0.68;0.32;;;;;;;5.29;100.00;96378.81;10410804;28;20124;-82
2022/04/08 14:38:14;;;;;;;1.38;1.00;;;;;;;5.22;100.00;96381.34;10391353;28;20544;-82
2022/04/08 14:43:19;;;;;;;1.05;0.65;;;;;;;5.28;100.00;96385.16;10413078;28;20056;-83
2022/04/08 14:48:24;;;;;;;1.35;0.68;;;;;;;5.02;100.00;96375.66;10416205;28;20033;-84
2022/04/08 14:53:27;;;;;;;1.30;1.20;;;;;;;4.92;100.00;96370.53;10376133;28;20050;-83
2022/04/08 14:58:32;;;;;;;1.30;1.20;;;;;;;4.76;100.00;96368.78;10350680;28;20165;-82
2022/04/08 15:03:35;;;;;;;0.60;0.50;;;;;;;4.56;100.00;96381.72;10351482;28;20044;-82
2022/04/08 15:08:38;;;;;;;1.70;1.20;;;;;;;4.46;100.00;96395.28;10373490;28;20132;-81
2022/04/08 15:13:42;;;;;;;1.20;1.00;;;;;;;4.42;100.00;96395.78;10371394;28;20076;-82
2022/04/08 15:18:45;;;;;;;0.90;0.52;;;;;;;4.43;100.00;96386.78;10377585;28;20065;-84
2022/04/08 15:23:48;;;;;;;1.05;0.60;;;;;;;4.38;100.00;96399.81;10379424;28;20057;-83
2022/04/08 15:28:54;;;;;;;0.80;0.80;;;;;;;4.23;100.00;96397.03;10386418;28;20057;-81
2022/04/08 15:34:01;;;;;;;1.10;0.50;;;;;;;4.16;100.00;96388.88;10383195;28;20054;-84
2022/04/08 15:39:07;;;;;;;0.60;0.40;;;;;;;4.10;100.00;96384.22;10385086;28;20049;-81
2022/04/08 15:44:12;;;;;;;0.57;0.40;;;;;;;4.08;100.00;96387.06;10393427;23;20457;-62
2022/04/08 15:49:15;;;;;;;0.50;0.47;;;;;;;3.97;100.00;96393.56;10432021;28;20055;-61
2022/04/08 15:54:18;;;;;;;0.70;0.50;;;;;;;4.05;100.00;96405.25;10434603;28;20070;-63
2022/04/08 15:59:27;;;;;;;0.88;0.60;;;;;;;4.07;100.00;96403.22;10435400;28;20053;-56
2022/04/08 16:04:30;;;;;;;0.60;0.60;;;;;;;4.06;100.00;96401.56;10433942;28;20095;-59
2022/04/08 16:09:33;;;;;;;0.75;0.57;;;;;;;4.06;100.00;96401.56;10434226;28;20116;-60
2022/04/08 16:14:38;;;;;;;0.88;0.40;;;;;;;3.97;100.00;96401.56;10433465;28;20471;-60
2022/04/08 16:19:41;;;;;;;1.10;0.40;;;;;;;3.96;100.00;96386.59;10431912;28;20544;-60
2022/04/08 16:24:45;;;;;;;0.47;0.40;;;;;;;3.87;100.00;96392.13;10431295;28;20049;-59
2022/04/08 16:29:49;;;;;;;0.50;0.50;;;;;;;3.79;100.00;96382.31;10431385;28;20488;-54
2022/04/08 16:34:53;;;;;;;3.35;0.57;;;;;;;3.59;100.00;96385.31;10432297;28;20048;-55
2022/04/08 16:39:57;;;;;;;0.70;0.60;;;;;;;3.63;100.00;96386.63;10431618;28;20505;-55
2022/04/08 16:45:05;;;;;;;0.60;0.50;;;;;;;3.60;100.00;96397.63;10432620;28;20081;-58
2022/04/08 16:50:09;;;;;;;0.50;0.50;;;;;;;3.49;100.00;96381.97;10430197;28;20139;-57
2022/04/08 16:55:15;;;;;;;1.00;0.50;;;;;;;3.45;100.00;96372.69;10430942;28;20075;-60
2022/04/08 17:00:20;;;;;;;0.55;0.40;;;;;;;3.41;100.00;96363.38;10407315;28;20053;-61
2022/04/08 17:05:27;;;;;;;0.73;0.50;;;;;;;3.31;100.00;96372.34;10433024;28;20421;-59
2022/04/08 17:10:32;;;;;;;1.52;0.50;;;;;;;3.27;100.00;96383.50;10431208;28;20068;-59
2022/04/08 17:15:37;;;;;;;0.75;0.43;;;;;;;3.17;100.00;96383.66;10431367;28;20044;-58
2022/04/08 17:20:40;;;;;;;0.93;0.60;;;;;;;3.03;100.00;96379.81;10432232;28;20048;-60
2022/04/08 17:25:43;;;;;;;0.70;0.60;;;;;;;3.10;100.00;96380.00;10427946;28;20175;-61
2022/04/08 17:30:54;;;;;;;0.55;0.55;;;;;;;3.04;100.00;96365.53;10429606;28;20071;-60
2022/04/08 17:35:57;;;;;;;0.45;0.45;;;;;;;3.00;100.00;96364.19;10426993;28;20068;-53
2022/04/08 17:41:00;;;;;;;0.65;0.50;;;;;;;2.92;100.00;96365.84;10430183;28;20143;-58
2022/04/08 17:46:07;;;;;;;0.65;0.50;;;;;;;2.88;100.00;96369.81;10428616;28;20528;-60
2022/04/08 17:51:11;;;;;;;1.02;0.47;;;;;;;2.88;100.00;96356.53;10429398;28;20041;-61
2022/04/08 17:56:14;;;;;;;0.47;0.40;;;;;;;2.84;100.00;96347.19;10429894;28;20182;-59
2022/04/08 18:01:19;;;;;;;0.95;0.30;;;;;;;2.85;100.00;96364.81;10428934;28;20548;-58
2022/04/08 18:06:22;;;;;;;0.68;0.30;;;;;;;2.82;100.00;96366.97;10410613;28;21513;-59
2022/04/08 18:11:26;;;;;;;0.90;0.50;;;;;;;2.84;100.00;96368.47;10425509;28;20139;-59
2022/04/08 18:16:30;;;;;;;1.73;0.75;;;;;;;2.83;100.00;96390.72;10427812;28;20500;-58
2022/04/08 18:21:33;;;;;;;0.70;0.70;;;;;;;2.76;100.00;96389.72;10428452;28;20056;-59
2022/04/08 18:26:37;;;;;;;0.82;0.60;;;;;;;2.82;100.00;96409.53;10428939;28;21373;-58
2022/04/08 18:31:41;;;;;;;0.40;0.40;;;;;;;2.76;100.00;96398.53;10429596;28;20063;-59
2022/04/08 18:36:44;;;;;;;0.63;0.40;;;;;;;2.63;100.00;96408.81;10427802;28;20759;-57
2022/04/08 18:41:48;;;;;;;0.95;0.50;;;;;;;2.52;100.00;96391.31;10427640;28;20048;-59
2022/04/08 18:46:53;;;;;;;0.40;0.40;;;;;;;2.59;100.00;96404.81;10429232;28;21373;-57
2022/04/08 18:51:56;;;;;;;0.60;0.57;;;;;;;2.59;100.00;96391.50;10430853;28;20052;-60
2022/04/08 18:56:59;;;;;;;0.95;0.40;;;;;;;2.59;100.00;96391.50;10430502;28;20052;-60
2022/04/08 19:02:04;;;;;;;0.40;0.40;;;;;;;2.58;100.00;96392.50;10435349;28;21335;-57
2022/04/08 19:07:08;;;;;;;1.15;0.60;;;;;;;2.58;100.00;96387.19;10436837;28;20115;-59
2022/04/08 19:12:12;;;;;;;0.50;0.50;;;;;;;2.52;100.00;96382.53;10413475;28;20049;-57
2022/04/08 19:17:19;;;;;;;0.57;0.43;;;;;;;2.53;100.00;96394.84;10435216;28;20048;-59
2022/04/08 19:22:22;;;;;;;0.75;0.50;;;;;;;2.48;100.00;96389.97;10440068;28;20045;-59
2022/04/08 19:27:26;;;;;;;0.73;0.73;;;;;;;2.36;100.00;96397.41;10437731;28;20120;-60
2022/04/08 19:32:31;;;;;;;0.73;0.70;;;;;;;2.35;100.00;96393.09;10435707;28;20145;-58
2022/04/08 19:37:35;;;;;;;1.00;0.73;;;;;;;2.37;100.00;96400.88;10434239;28;20048;-55
2022/04/08 19:42:40;;;;;;;1.42;0.80;;;;;;;2.38;100.00;96414.03;10417518;28;20057;-57
2022/04/08 19:47:45;;;;;;;1.15;0.80;;;;;;;2.35;100.00;96409.03;10433319;28;20045;-54
2022/04/08 19:52:50;;;;;;;1.00;1.00;;;;;;;2.35;100.00;96403.72;10411402;28;20079;-55
2022/04/08 19:57:55;;;;;;;1.67;0.73;;;;;;;2.36;100.00;96397.41;10430081;28;20045;-58
2022/04/08 20:03:01;;;;;;;0.85;0.68;;;;;;;2.38;100.00;96403.41;10428544;28;20053;-58
2022/04/08 20:08:05;;;;;;;0.60;0.60;;;;;;;2.38;100.00;96400.75;10429965;28;20155;-60
2022/04/08 20:13:10;;;;;;;0.63;0.60;;;;;;;2.31;100.00;96397.03;10431420;28;20501;-53
2022/04/08 20:18:21;;;;;;;0.90;0.80;;;;;;;2.31;100.00;96397.91;10417089;28;20045;-56
2022/04/08 20:23:25;;;;;;;0.65;0.60;;;;;;;2.29;100.00;96381.28;10430312;28;20060;-55
2022/04/08 20:28:29;;;;;;;0.70;0.70;;;;;;;2.29;100.00;96372.50;10429379;28;20051;-56
2022/04/08 20:33:36;;;;;;;0.95;0.80;;;;;;;2.37;100.00;96359.22;10431711;28;20090;-53
2022/04/08 20:38:39;;;;;;;0.70;0.70;;;;;;;2.41;100.00;96349.09;10432246;28;20878;-57
2022/04/08 20:43:43;;;;;;;0.70;0.70;;;;;;;2.37;100.00;96348.59;10431683;28;20057;-56
2022/04/08 20:48:47;;;;;;;0.50;0.50;;;;;;;2.39;100.00;96332.47;10431418;28;20051;-56
2022/04/08 20:53:52;;;;;;;0.63;0.50;;;;;;;2.40;100.00;96336.81;10414786;28;20072;-54
2022/04/08 20:58:55;;;;;;;0.70;0.68;;;;;;;2.36;100.00;96320.34;10418213;28;20939;-57
2022/04/08 21:04:00;;;;;;;0.70;0.70;;;;;;;2.27;100.00;96311.53;10429598;28;20044;-58
2022/04/08 21:09:07;;;;;;;2.08;0.80;;;;;;;2.31;100.00;96298.75;10411567;28;20069;-57
2022/04/08 21:14:11;;;;;;;1.35;0.80;;;;;;;2.31;100.00;96306.72;10431475;28;20059;-59
2022/04/08 21:19:21;;;;;;;0.80;0.80;;;;;;;2.26;100.00;96322.31;10431275;28;20052;-59
2022/04/08 21:24:27;;;;;;;0.98;0.80;;;;;;;2.29;100.00;96306.88;10430358;28;20047;-58
2022/04/08 21:29:31;;;;;;;1.17;0.90;;;;;;;2.28;100.00;96301.75;10431694;28;20037;-59
2022/04/08 21:34:35;;;;;;;1.02;0.95;;;;;;;2.25;100.00;96280.81;10428580;28;20061;-56
2022/04/08 21:39:40;;;;;;;1.00;0.90;;;;;;;2.22;100.00;96284.63;10428158;28;20045;-55
2022/04/08 21:44:44;;;;;;;1.30;0.90;;;;;;;2.22;100.00;96276.66;10428514;28;20155;-53
2022/04/08 21:49:49;;;;;;;0.75;0.75;;;;;;;2.22;100.00;96302.38;10428842;28;20505;-56
2022/04/08 21:54:52;;;;;;;1.15;0.90;;;;;;;2.12;100.00;96313.97;10428199;28;20428;-55
2022/04/08 21:59:56;;;;;;;0.82;0.82;;;;;;;2.15;100.00;96348.19;10419551;23;20135;-63
2022/04/08 22:05:02;;;;;;;1.42;1.10;;;;;;;2.11;100.00;96364.59;10418343;28;20120;-61
2022/04/08 22:10:06;;;;;;;1.25;1.00;;;;;;;2.11;100.00;96365.44;10403901;28;20132;-64
2022/04/08 22:15:09;;;;;;;1.50;1.10;;;;;;;2.09;100.00;96372.72;10424625;28;20131;-61
2022/04/08 22:20:14;;;;;;;1.15;1.02;;;;;;;2.12;100.00;96366.25;10425012;28;20044;-63
2022/04/08 22:25:18;;;;;;;0.90;0.90;;;;;;;2.13;100.00;96358.13;10424155;28;20050;-64
2022/04/08 22:30:21;;;;;;;1.52;1.15;;;;;;;2.14;100.00;96358.94;10424580;28;20135;-61
2022/04/08 22:35:26;;;;;;;1.45;1.00;;;;;;;2.15;100.00;96350.84;10417842;28;20045;-64
2022/04/08 22:40:30;;;;;;;1.08;0.90;;;;;;;2.19;100.00;96339.88;10431738;28;20176;-60
2022/04/08 22:45:34;;;;;;;1.10;1.00;;;;;;;2.20;100.00;96341.53;10430035;28;20041;-66
2022/04/08 22:50:39;;;;;;;1.45;1.00;;;;;;;2.24;100.00;96343.72;10417611;28;20476;-65
2022/04/08 22:55:42;;;;;;;1.10;1.00;;;;;;;2.23;100.00;96351.84;10431623;28;20506;-65
2022/04/08 23:00:45;;;;;;;1.15;1.05;;;;;;;2.27;100.00;96379.78;10432531;28;20146;-66
2022/04/08 23:05:50;;;;;;;1.10;1.00;;;;;;;2.28;100.00;96389.41;10431712;28;20048;-63
2022/04/08 23:10:54;;;;;;;1.17;1.08;;;;;;;2.29;100.00;96410.50;10431961;28;20049;-66
2022/04/08 23:15:57;;;;;;;1.20;1.10;;;;;;;2.27;100.00;96428.41;10430790;28;20480;-61
2022/04/08 23:21:05;;;;;;;1.30;1.00;;;;;;;2.31;100.00;96439.56;10428788;28;20052;-65
2022/04/08 23:26:09;;;;;;;1.73;1.23;;;;;;;2.31;100.00;96434.25;10429572;28;20056;-64
2022/04/08 23:31:12;;;;;;;4.15;1.30;;;;;;;2.33;100.00;96442.91;10413581;28;20480;-62
2022/04/08 23:36:17;;;;;;;1.45;1.35;;;;;;;2.35;100.00;96440.91;10428508;28;20052;-64
2022/04/08 23:41:20;;;;;;;2.40;1.50;;;;;;;2.37;100.00;96451.38;10429851;28;20061;-65